Time;durP1;ratioP1;P1;durP2;ratioP2;P2;SDS_P1;SDS_P2;PMS_P1;PMS_P2;Temp;Humidity;BMP_temperature;BMP_pressure;BME280_temperature;BME280_humidity;BME280_pressure;Samples;Min_cycle;Max_cycle;Signal;HPM_P1;HPM_P2
2023/10/20 00:01:54;;;;;;;;;;;19.90;68.30;;;;;;5022420;28;1630;-66
2023/10/20 00:04:19;;;;;;;;;;;19.90;68.30;;;;;;5020547;28;1346;-66
2023/10/20 00:06:44;;;;;;;;;;;19.90;68.30;;;;;;5023259;28;1528;-66
2023/10/20 00:09:14;;;;;;;;;;;19.90;68.30;;;;;;5025404;28;1599;-66
2023/10/20 00:11:41;;;;;;;;;;;19.90;68.30;;;;;;5022618;28;1487;-66
2023/10/20 00:14:06;;;;;;;;;;;19.90;68.40;;;;;;5021462;28;1954;-66
2023/10/20 00:16:32;;;;;;;;;;;19.90;68.40;;;;;;5021214;28;1287;-66
2023/10/20 00:19:00;;;;;;;;;;;19.90;68.40;;;;;;5028923;28;1561;-66
2023/10/20 00:21:26;;;;;;;;;;;19.90;68.50;;;;;;5025524;28;1395;-66
2023/10/20 00:23:51;;;;;;;;;;;19.90;68.40;;;;;;5023506;28;1367;-66
2023/10/20 00:26:17;;;;;;;;;;;19.90;68.50;;;;;;5021737;28;1390;-66
2023/10/20 00:28:42;;;;;;;;;;;19.90;69.30;;;;;;5022384;28;1442;-66
2023/10/20 00:31:09;;;;;;;;;;;19.80;68.40;;;;;;5021639;28;1341;-66
2023/10/20 00:33:35;;;;;;;;;;;19.90;68.50;;;;;;5020345;28;1954;-66
2023/10/20 00:36:01;;;;;;;;;;;19.80;68.50;;;;;;5018704;28;1414;-66
2023/10/20 00:38:26;;;;;;;;;;;19.80;68.50;;;;;;5022440;28;1423;-66
2023/10/20 00:40:52;;;;;;;;;;;19.80;68.50;;;;;;5023696;28;1526;-66
2023/10/20 00:43:18;;;;;;;;;;;19.80;68.50;;;;;;5022174;28;1521;-66
2023/10/20 00:45:43;;;;;;;;;;;19.80;68.50;;;;;;5017240;28;1312;-66
2023/10/20 00:48:12;;;;;;;;;;;19.80;68.50;;;;;;5021113;28;1158;-66
2023/10/20 00:50:38;;;;;;;;;;;19.80;68.50;;;;;;5020666;28;1120;-66
2023/10/20 00:53:04;;;;;;;;;;;19.80;68.50;;;;;;5020402;28;1915;-66
2023/10/20 00:55:30;;;;;;;;;;;19.80;68.50;;;;;;5018302;28;1501;-66
2023/10/20 00:57:55;;;;;;;;;;;19.80;68.50;;;;;;5017533;28;1390;-66
2023/10/20 01:00:21;;;;;;;;;;;19.80;68.50;;;;;;5019751;28;1050;-66
2023/10/20 01:02:47;;;;;;;;;;;19.80;68.60;;;;;;5020385;28;950;-66
2023/10/20 01:05:19;;;;;;;;;;;19.80;68.60;;;;;;5022905;28;1328;-66
2023/10/20 01:07:44;;;;;;;;;;;19.80;68.60;;;;;;5019287;28;1126;-66
2023/10/20 01:10:10;;;;;;;;;;;19.80;68.60;;;;;;5021022;28;866;-66
2023/10/20 01:12:35;;;;;;;;;;;19.80;68.60;;;;;;5020004;28;1906;-66
2023/10/20 01:15:02;;;;;;;;;;;19.80;68.70;;;;;;5020246;28;1370;-67
2023/10/20 01:17:27;;;;;;;;;;;19.80;68.70;;;;;;5021480;28;924;-66
2023/10/20 01:19:53;;;;;;;;;;;19.80;68.70;;;;;;5021222;28;1337;-66
2023/10/20 01:22:18;;;;;;;;;;;19.80;68.70;;;;;;5019875;28;975;-66
2023/10/20 01:24:44;;;;;;;;;;;19.80;68.70;;;;;;5019583;28;1480;-66
2023/10/20 01:27:09;;;;;;;;;;;19.80;68.70;;;;;;5019559;28;1218;-66
2023/10/20 01:29:34;;;;;;;;;;;19.80;68.70;;;;;;5021440;28;1530;-66
2023/10/20 01:32:00;;;;;;;;;;;19.80;68.80;;;;;;5021267;28;1930;-66
2023/10/20 01:34:25;;;;;;;;;;;19.80;68.80;;;;;;5020387;28;1442;-66
2023/10/20 01:36:51;;;;;;;;;;;19.80;68.80;;;;;;5019670;28;1363;-66
2023/10/20 01:39:17;;;;;;;;;;;19.80;68.80;;;;;;5019973;28;1448;-66
2023/10/20 01:41:42;;;;;;;;;;;19.70;68.70;;;;;;5019586;28;1446;-66
2023/10/20 01:44:13;;;;;;;;;;;19.70;68.80;;;;;;5020604;28;1419;-66
2023/10/20 01:46:38;;;;;;;;;;;19.70;68.80;;;;;;5017822;28;1237;-66
2023/10/20 01:49:05;;;;;;;;;;;19.70;68.90;;;;;;5020790;28;1207;-66
2023/10/20 01:51:31;;;;;;;;;;;19.70;68.90;;;;;;5020986;28;1322;-66
2023/10/20 01:53:56;;;;;;;;;;;19.70;68.90;;;;;;5018800;28;1914;-66
2023/10/20 01:56:22;;;;;;;;;;;19.70;68.90;;;;;;5018922;28;1382;-66
2023/10/20 01:58:47;;;;;;;;;;;19.70;68.90;;;;;;5017287;28;1440;-66
2023/10/20 02:01:13;;;;;;;;;;;19.70;68.90;;;;;;5014347;28;1229;-66
2023/10/20 02:03:38;;;;;;;;;;;19.70;68.90;;;;;;5021500;28;1223;-66
2023/10/20 02:06:04;;;;;;;;;;;19.70;68.90;;;;;;5021326;28;1371;-66
2023/10/20 02:08:30;;;;;;;;;;;19.70;68.90;;;;;;5017500;28;1159;-66
2023/10/20 02:10:55;;;;;;;;;;;19.70;68.90;;;;;;5019664;28;1152;-66
2023/10/20 02:13:21;;;;;;;;;;;19.70;68.90;;;;;;5018756;28;1906;-66
2023/10/20 02:15:47;;;;;;;;;;;19.80;69.00;;;;;;5017532;28;1456;-66
2023/10/20 02:18:12;;;;;;;;;;;19.70;69.00;;;;;;5019810;28;1454;-66
2023/10/20 02:20:38;;;;;;;;;;;19.70;69.00;;;;;;5020465;28;1314;-66
2023/10/20 02:23:03;;;;;;;;;;;19.70;69.00;;;;;;5018174;28;1400;-66
2023/10/20 02:25:29;;;;;;;;;;;19.70;69.00;;;;;;5017645;28;1384;-66
2023/10/20 02:27:55;;;;;;;;;;;19.70;69.00;;;;;;5018885;28;1502;-66
2023/10/20 02:30:21;;;;;;;;;;;19.70;69.10;;;;;;5018165;28;1192;-66
2023/10/20 02:32:46;;;;;;;;;;;19.70;69.00;;;;;;5021170;28;1958;-66
2023/10/20 02:35:12;;;;;;;;;;;19.80;69.10;;;;;;5017736;28;1311;-66
2023/10/20 02:37:37;;;;;;;;;;;19.70;69.00;;;;;;5020959;28;1450;-66
2023/10/20 02:40:06;;;;;;;;;;;19.70;69.10;;;;;;5015950;28;1260;-66
2023/10/20 02:42:34;;;;;;;;;;;19.70;69.10;;;;;;5017524;28;1187;-66
2023/10/20 02:45:00;;;;;;;;;;;19.70;69.10;;;;;;5018361;28;1361;-66
2023/10/20 02:47:25;;;;;;;;;;;19.70;69.10;;;;;;5018903;28;1179;-66
2023/10/20 02:49:57;;;;;;;;;;;19.70;69.10;;;;;;5020517;28;1424;-67
2023/10/20 02:52:23;;;;;;;;;;;19.70;69.10;;;;;;5019078;28;1898;-67
2023/10/20 02:54:53;;;;;;;;;;;19.70;69.10;;;;;;5016553;28;1456;-67
2023/10/20 02:57:19;;;;;;;;;;;19.70;69.20;;;;;;5017402;28;1390;-67
2023/10/20 02:59:44;;;;;;;;;;;19.70;69.20;;;;;;5019292;28;1234;-67
2023/10/20 03:02:10;;;;;;;;;;;19.70;69.20;;;;;;5020323;28;1526;-67
2023/10/20 03:04:36;;;;;;;;;;;19.70;69.20;;;;;;5018396;28;1510;-66
2023/10/20 03:07:01;;;;;;;;;;;19.70;69.20;;;;;;5017354;28;1286;-66
2023/10/20 03:09:26;;;;;;;;;;;19.70;69.20;;;;;;5018839;28;1350;-67
2023/10/20 03:11:52;;;;;;;;;;;19.70;69.20;;;;;;5023941;28;1309;-66
2023/10/20 03:14:17;;;;;;;;;;;19.70;69.20;;;;;;5030399;28;1898;-66
2023/10/20 03:16:43;;;;;;;;;;;19.70;69.30;;;;;;5025348;28;1732;-66
2023/10/20 03:19:11;;;;;;;;;;;19.70;69.30;;;;;;5023844;28;1205;-66
2023/10/20 03:21:37;;;;;;;;;;;19.70;69.20;;;;;;5021867;28;1342;-67
2023/10/20 03:24:04;;;;;;;;;;;19.70;69.30;;;;;;5024588;28;1302;-66
2023/10/20 03:26:30;;;;;;;;;;;19.70;69.30;;;;;;5022146;28;1518;-66
2023/10/20 03:28:56;;;;;;;;;;;19.70;69.30;;;;;;5023533;28;1153;-66
2023/10/20 03:31:21;;;;;;;;;;;19.70;69.30;;;;;;5024533;28;1317;-66
2023/10/20 03:33:48;;;;;;;;;;;19.70;69.30;;;;;;5021576;28;1907;-67
2023/10/20 03:36:13;;;;;;;;;;;19.70;69.30;;;;;;5022604;28;1268;-67
2023/10/20 03:38:39;;;;;;;;;;;19.70;69.30;;;;;;5023211;28;1129;-66
2023/10/20 03:41:05;;;;;;;;;;;19.70;69.30;;;;;;5022813;28;1336;-66
2023/10/20 03:43:31;;;;;;;;;;;19.70;69.30;;;;;;5025319;28;1116;-66
2023/10/20 03:45:56;;;;;;;;;;;19.70;69.30;;;;;;5020474;28;1285;-66
2023/10/20 03:48:23;;;;;;;;;;;19.70;69.40;;;;;;5021581;28;1358;-67
2023/10/20 03:50:49;;;;;;;;;;;19.60;69.30;;;;;;5024876;28;1175;-67
2023/10/20 03:53:18;;;;;;;;;;;19.70;69.30;;;;;;5021837;28;1902;-67
2023/10/20 03:55:44;;;;;;;;;;;19.60;69.30;;;;;;5022138;28;1494;-66
2023/10/20 03:58:10;;;;;;;;;;;19.70;69.40;;;;;;5020913;28;1285;-68
2023/10/20 04:00:40;;;;;;;;;;;19.70;69.40;;;;;;5020149;28;1098;-66
2023/10/20 04:03:05;;;;;;;;;;;19.70;69.40;;;;;;5021942;28;1259;-67
2023/10/20 04:05:31;;;;;;;;;;;19.60;69.30;;;;;;5019485;28;1316;-66
2023/10/20 04:07:57;;;;;;;;;;;19.60;69.40;;;;;;5025498;28;1476;-66
2023/10/20 04:10:23;;;;;;;;;;;19.60;69.40;;;;;;5021270;28;1288;-66
2023/10/20 04:12:48;;;;;;;;;;;19.60;69.30;;;;;;5019916;28;1959;-66
2023/10/20 04:15:19;;;;;;;;;;;19.70;69.40;;;;;;5021855;28;1389;-67
2023/10/20 04:17:56;;;;;;;;;;;19.60;69.40;;;;;;5021705;28;1407;-67
2023/10/20 04:20:21;;;;;;;;;;;19.60;69.40;;;;;;5023251;28;1387;-66
2023/10/20 04:22:50;;;;;;;;;;;19.60;69.40;;;;;;5019977;28;1417;-66
2023/10/20 04:25:17;;;;;;;;;;;19.60;69.40;;;;;;5024795;28;1292;-66
2023/10/20 04:27:50;;;;;;;;;;;19.60;69.40;;;;;;5022029;28;1481;-66
2023/10/20 04:52:15;;;;;;;;;;;19.60;69.50;;;;;;5020079;28;1910;-66
2023/10/20 05:02:54;;;;;;;;;;;19.70;69.50;;;;;;5020308;28;1398;-67
2023/10/20 05:05:34;;;;;;;;;;;19.70;69.40;;;;;;5014028;28;1346;-65
2023/10/20 05:08:17;;;;;;;;;;;19.80;69.50;;;;;;5020040;28;1607;-65
2023/10/20 05:10:43;;;;;;;;;;;19.90;69.60;;;;;;5018724;28;1419;-65
2023/10/20 05:13:08;;;;;;;;;;;20.00;69.30;;;;;;5017306;28;1960;-65
2023/10/20 05:15:38;;;;;;;;;;;20.10;68.80;;;;;;5018009;28;1381;-66
2023/10/20 05:18:11;;;;;;;;;;;20.30;68.40;;;;;;5017847;28;1316;-67
2023/10/20 05:20:37;;;;;;;;;;;20.40;68.00;;;;;;5018107;28;1420;-66
2023/10/20 05:23:02;;;;;;;;;;;20.50;67.50;;;;;;5016637;28;1551;-65
2023/10/20 05:25:28;;;;;;;;;;;20.60;67.10;;;;;;5014803;28;4424;-66
2023/10/20 05:27:54;;;;;;;;;;;20.80;66.80;;;;;;5019801;28;1307;-66
2023/10/20 05:30:19;;;;;;;;;;;20.90;66.50;;;;;;5021090;28;1462;-65
2023/10/20 05:32:46;;;;;;;;;;;21.00;66.20;;;;;;5018247;28;1914;-66
2023/10/20 05:35:11;;;;;;;;;;;21.10;65.90;;;;;;5019399;28;1376;-66
2023/10/20 05:37:37;;;;;;;;;;;21.20;65.60;;;;;;5016838;28;1266;-65
2023/10/20 05:40:03;;;;;;;;;;;21.30;65.40;;;;;;5023086;28;1456;-66
2023/10/20 05:42:29;;;;;;;;;;;21.30;65.00;;;;;;5020890;28;1303;-66
2023/10/20 05:45:09;;;;;;;;;;;21.40;64.80;;;;;;5022372;28;1297;-65
2023/10/20 05:47:38;;;;;;;;;;;21.40;64.50;;;;;;5017949;28;1066;-66
2023/10/20 05:50:04;;;;;;;;;;;21.50;64.40;;;;;;5018834;28;1341;-65
2023/10/20 05:52:29;;;;;;;;;;;21.50;64.30;;;;;;5018423;28;1906;-66
2023/10/20 05:54:55;;;;;;;;;;;21.50;64.20;;;;;;5022817;28;1433;-66
2023/10/20 05:57:22;;;;;;;;;;;21.50;64.10;;;;;;5017124;28;1535;-67
2023/10/20 05:59:48;;;;;;;;;;;21.50;64.10;;;;;;5016694;28;1428;-66
2023/10/20 06:02:13;;;;;;;;;;;21.60;64.20;;;;;;5020196;28;1965;-67
2023/10/20 06:04:39;;;;;;;;;;;21.60;64.10;;;;;;5019232;28;1968;-66
2023/10/20 06:07:04;;;;;;;;;;;21.60;64.10;;;;;;5017907;28;1450;-67
2023/10/20 06:09:29;;;;;;;;;;;21.60;64.00;;;;;;5017075;28;1314;-67
2023/10/20 06:11:55;;;;;;;;;;;21.60;63.90;;;;;;5019528;28;1381;-67
2023/10/20 06:14:21;;;;;;;;;;;21.60;63.90;;;;;;5017167;28;1879;-67
2023/10/20 06:16:46;;;;;;;;;;;21.60;63.90;;;;;;5017222;28;1466;-67
2023/10/20 06:19:12;;;;;;;;;;;21.60;64.60;;;;;;5014317;28;1218;-67
2023/10/20 06:21:38;;;;;;;;;;;21.60;63.90;;;;;;5021077;28;1326;-67
2023/10/20 06:24:04;;;;;;;;;;;21.60;63.90;;;;;;5019605;28;1518;-67
2023/10/20 06:26:29;;;;;;;;;;;21.60;63.80;;;;;;5015722;28;1601;-66
2023/10/20 06:28:55;;;;;;;;;;;21.60;63.90;;;;;;5020142;28;1260;-66
2023/10/20 06:31:41;;;;;;;;;;;21.60;63.90;;;;;;5019816;28;1463;-68
2023/10/20 06:36:50;;;;;;;;;;;21.60;64.00;;;;;;5019423;28;1408;-66
2023/10/20 06:39:18;;;;;;;;;;;21.60;63.90;;;;;;5015570;28;1012;-67
2023/10/20 06:41:44;;;;;;;;;;;21.60;64.00;;;;;;5017033;28;1373;-67
2023/10/20 06:44:09;;;;;;;;;;;21.50;63.90;;;;;;5020579;28;1393;-68
2023/10/20 06:46:35;;;;;;;;;;;21.50;64.00;;;;;;5020117;28;1498;-67
2023/10/20 06:49:00;;;;;;;;;;;21.50;64.10;;;;;;5022597;28;1524;-67
2023/10/20 06:51:26;;;;;;;;;;;21.50;64.10;;;;;;5020265;28;1471;-68
2023/10/20 06:53:51;;;;;;;;;;;21.50;64.10;;;;;;5021274;28;1898;-67
2023/10/20 06:56:17;;;;;;;;;;;21.50;64.10;;;;;;5021310;28;1535;-67
2023/10/20 06:58:43;;;;;;;;;;;21.40;64.20;;;;;;5023920;28;1575;-66
2023/10/20 07:01:08;;;;;;;;;;;21.40;64.20;;;;;;5023187;28;1444;-67
2023/10/20 07:03:34;;;;;;;;;;;21.40;64.30;;;;;;5022760;28;1421;-66
2023/10/20 07:06:00;;;;;;;;;;;21.40;64.40;;;;;;5019475;28;1601;-67
2023/10/20 07:08:26;;;;;;;;;;;21.40;64.40;;;;;;5022532;28;1892;-67
2023/10/20 07:10:52;;;;;;;;;;;21.40;64.50;;;;;;5025616;28;1304;-66
2023/10/20 07:13:17;;;;;;;;;;;21.40;65.10;;;;;;5023226;28;1971;-67
2023/10/20 07:15:43;;;;;;;;;;;21.40;65.40;;;;;;5023780;28;1399;-67
2023/10/20 07:18:11;;;;;;;;;;;21.40;65.50;;;;;;5021913;28;1264;-67
2023/10/20 07:20:38;;;;;;;;;;;21.40;65.50;;;;;;5020020;28;1602;-67
2023/10/20 07:23:07;;;;;;;;;;;21.40;65.60;;;;;;5021996;28;935;-66
2023/10/20 07:25:32;;;;;;;;;;;21.40;65.70;;;;;;5023117;28;1380;-67
2023/10/20 07:27:58;;;;;;;;;;;21.40;65.60;;;;;;5023277;28;1237;-67
2023/10/20 07:30:23;;;;;;;;;;;21.40;65.70;;;;;;5025726;28;1378;-67
2023/10/20 07:32:51;;;;;;;;;;;21.40;65.80;;;;;;5022315;28;1911;-67
2023/10/20 07:35:17;;;;;;;;;;;21.40;65.80;;;;;;5020443;28;1407;-67
2023/10/20 07:37:43;;;;;;;;;;;21.40;65.90;;;;;;5021016;28;1397;-66
2023/10/20 07:40:09;;;;;;;;;;;21.40;66.10;;;;;;5020925;28;1486;-66
2023/10/20 07:42:35;;;;;;;;;;;21.40;66.20;;;;;;5019598;28;1571;-66
2023/10/20 07:45:00;;;;;;;;;;;21.40;66.30;;;;;;5020754;28;1504;-66
2023/10/20 07:47:27;;;;;;;;;;;21.40;66.30;;;;;;5021560;28;1346;-66
2023/10/20 07:49:52;;;;;;;;;;;21.40;66.40;;;;;;5023479;28;1338;-66
2023/10/20 07:52:18;;;;;;;;;;;21.30;66.40;;;;;;5021583;28;1967;-66
2023/10/20 07:54:43;;;;;;;;;;;21.30;66.50;;;;;;5019936;28;1205;-66
2023/10/20 07:57:10;;;;;;;;;;;21.30;66.60;;;;;;5023374;28;1426;-66
2023/10/20 07:59:35;;;;;;;;;;;21.30;66.70;;;;;;5022291;28;1305;-66
2023/10/20 08:02:01;;;;;;;;;;;21.30;66.90;;;;;;5024300;28;1366;-66
2023/10/20 08:04:27;;;;;;;;;;;21.30;66.90;;;;;;5021709;28;1379;-66
2023/10/20 08:06:54;;;;;;;;;;;21.30;66.90;;;;;;5022179;28;1359;-66
2023/10/20 08:09:20;;;;;;;;;;;21.30;67.00;;;;;;5021782;28;1296;-66
2023/10/20 08:11:45;;;;;;;;;;;21.30;67.00;;;;;;5022062;28;1551;-66
2023/10/20 08:14:11;;;;;;;;;;;21.30;67.20;;;;;;5022353;28;1910;-66
2023/10/20 08:16:38;;;;;;;;;;;21.30;67.20;;;;;;5021620;28;1427;-66
2023/10/20 08:19:03;;;;;;;;;;;21.30;67.20;;;;;;5022481;28;1417;-67
2023/10/20 08:21:29;;;;;;;;;;;21.30;67.20;;;;;;5020030;28;1431;-66
2023/10/20 08:23:55;;;;;;;;;;;21.30;67.20;;;;;;5022347;28;1283;-66
2023/10/20 08:26:21;;;;;;;;;;;21.30;67.10;;;;;;5020671;28;1480;-66
2023/10/20 08:28:48;;;;;;;;;;;21.30;67.10;;;;;;5024375;28;1087;-66
2023/10/20 08:31:16;;;;;;;;;;;21.30;67.20;;;;;;5018826;28;1310;-66
2023/10/20 08:33:42;;;;;;;;;;;21.30;67.30;;;;;;5023699;28;1902;-66
2023/10/20 08:36:11;;;;;;;;;;;21.30;68.10;;;;;;5020614;28;1267;-66
2023/10/20 08:38:38;;;;;;;;;;;21.30;67.30;;;;;;5023274;28;1411;-66
2023/10/20 08:41:13;;;;;;;;;;;21.30;67.30;;;;;;5023891;28;2011;-66
2023/10/20 08:43:40;;;;;;;;;;;21.20;67.40;;;;;;5022772;28;1414;-66
2023/10/20 08:46:08;;;;;;;;;;;21.30;67.50;;;;;;5020818;28;1362;-66
2023/10/20 08:48:35;;;;;;;;;;;21.20;67.40;;;;;;5019586;28;1561;-66
2023/10/20 08:51:01;;;;;;;;;;;21.20;67.50;;;;;;5020171;28;1891;-66
2023/10/20 08:53:26;;;;;;;;;;;21.20;67.60;;;;;;5022335;28;1906;-66
2023/10/20 08:55:51;;;;;;;;;;;21.20;67.70;;;;;;5020267;28;1455;-66
2023/10/20 08:58:17;;;;;;;;;;;21.20;67.70;;;;;;5019917;28;1368;-66
2023/10/20 09:00:43;;;;;;;;;;;21.20;67.80;;;;;;5024999;28;1246;-66
2023/10/20 09:03:10;;;;;;;;;;;21.20;67.80;;;;;;5022750;28;1847;-67
2023/10/20 09:05:35;;;;;;;;;;;21.20;68.00;;;;;;5019700;28;2147;-66
2023/10/20 09:08:01;;;;;;;;;;;21.20;67.80;;;;;;5022858;28;1631;-66
2023/10/20 09:10:27;;;;;;;;;;;21.20;67.90;;;;;;5021400;28;1247;-67
2023/10/20 09:12:52;;;;;;;;;;;21.20;67.90;;;;;;5019129;28;1906;-67
2023/10/20 09:15:18;;;;;;;;;;;21.20;68.00;;;;;;5023034;28;1406;-66
2023/10/20 09:17:44;;;;;;;;;;;21.20;67.90;;;;;;5021289;28;1288;-67
2023/10/20 09:20:11;;;;;;;;;;;21.30;67.80;;;;;;5021148;28;1055;-67
2023/10/20 09:22:40;;;;;;;;;;;21.30;67.90;;;;;;5023240;28;907;-67
2023/10/20 09:25:13;;;;;;;;;;;21.30;67.70;;;;;;5020201;28;1301;-67
2023/10/20 09:27:38;;;;;;;;;;;21.30;67.70;;;;;;5017770;28;1532;-66
2023/10/20 09:30:08;;;;;;;;;;;21.30;67.80;;;;;;5020981;28;1855;-67
2023/10/20 09:32:34;;;;;;;;;;;21.30;67.70;;;;;;5019162;28;2023;-67
2023/10/20 09:35:00;;;;;;;;;;;21.30;67.60;;;;;;5020289;28;1337;-66
2023/10/20 09:37:25;;;;;;;;;;;21.30;67.60;;;;;;5020213;28;1381;-67
2023/10/20 09:39:52;;;;;;;;;;;21.30;67.60;;;;;;5018850;28;1359;-67
2023/10/20 09:42:20;;;;;;;;;;;21.30;67.50;;;;;;5022166;28;1914;-66
2023/10/20 09:44:51;;;;;;;;;;;21.30;67.50;;;;;;5021950;28;1374;-66
2023/10/20 09:47:23;;;;;;;;;;;21.30;67.50;;;;;;5023045;28;1239;-66
2023/10/20 09:49:51;;;;;;;;;;;21.40;67.60;;;;;;5020777;28;1382;-66
2023/10/20 09:52:16;;;;;;;;;;;21.30;67.50;;;;;;5020781;28;2167;-67
2023/10/20 09:54:42;;;;;;;;;;;21.30;67.50;;;;;;5020771;28;1458;-66
2023/10/20 09:57:08;;;;;;;;;;;21.30;67.50;;;;;;5020796;28;1576;-67
2023/10/20 09:59:34;;;;;;;;;;;21.30;67.60;;;;;;5021227;28;1443;-67
2023/10/20 10:01:59;;;;;;;;;;;21.30;67.60;;;;;;5020013;28;1602;-67
2023/10/20 10:04:26;;;;;;;;;;;21.30;67.60;;;;;;5021598;28;1434;-67
2023/10/20 10:06:51;;;;;;;;;;;21.30;67.70;;;;;;5020129;28;1420;-67
2023/10/20 10:09:18;;;;;;;;;;;21.30;67.80;;;;;;5018236;28;1512;-67
2023/10/20 10:11:44;;;;;;;;;;;21.30;68.00;;;;;;5016077;28;1426;-66
2023/10/20 10:14:17;;;;;;;;;;;21.30;68.10;;;;;;5015987;28;1965;-67
2023/10/20 10:16:55;;;;;;;;;;;21.30;68.20;;;;;;5015127;28;1931;-67
2023/10/20 10:19:27;;;;;;;;;;;21.30;68.20;;;;;;5021388;28;1389;-67
2023/10/20 10:21:53;;;;;;;;;;;21.20;68.10;;;;;;5021478;28;1514;-66
2023/10/20 10:24:22;;;;;;;;;;;21.20;68.20;;;;;;5019204;28;1256;-67
2023/10/20 10:26:51;;;;;;;;;;;21.20;68.30;;;;;;5018350;28;1427;-66
2023/10/20 10:29:40;;;;;;;;;;;21.30;69.40;;;;;;5017228;28;1308;-67
2023/10/20 10:32:15;;;;;;;;;;;21.30;68.70;;;;;;5015941;28;2003;-67
2023/10/20 10:34:43;;;;;;;;;;;21.30;68.40;;;;;;5019727;28;1534;-66
2023/10/20 10:37:09;;;;;;;;;;;21.30;68.30;;;;;;5019383;28;1361;-67
2023/10/20 10:39:34;;;;;;;;;;;21.30;68.30;;;;;;5017633;28;1409;-67
2023/10/20 10:42:03;;;;;;;;;;;21.30;68.30;;;;;;5017990;28;1464;-66
2023/10/20 10:44:35;;;;;;;;;;;21.30;68.20;;;;;;5020290;28;1437;-67
2023/10/20 10:47:04;;;;;;;;;;;21.30;68.20;;;;;;5019725;28;1351;-67
2023/10/20 10:49:31;;;;;;;;;;;21.30;68.20;;;;;;5020775;28;1438;-67
2023/10/20 10:51:57;;;;;;;;;;;21.30;68.20;;;;;;5021795;28;1369;-67
2023/10/20 10:54:24;;;;;;;;;;;21.30;68.20;;;;;;5018781;28;1969;-67
2023/10/20 10:56:49;;;;;;;;;;;21.30;68.10;;;;;;5020301;28;1450;-66
2023/10/20 10:59:15;;;;;;;;;;;21.30;68.10;;;;;;5021908;28;1368;-67
2023/10/20 11:01:40;;;;;;;;;;;21.30;68.20;;;;;;5020890;28;1404;-67
2023/10/20 11:04:07;;;;;;;;;;;21.30;68.20;;;;;;5019854;28;1308;-67
2023/10/20 11:06:35;;;;;;;;;;;21.30;68.20;;;;;;5020307;28;1369;-67
2023/10/20 11:09:02;;;;;;;;;;;21.30;68.20;;;;;;5014513;28;1774;-67
2023/10/20 11:11:27;;;;;;;;;;;21.30;68.30;;;;;;5016991;28;1437;-67
2023/10/20 11:13:53;;;;;;;;;;;21.30;68.30;;;;;;5018415;28;1924;-67
2023/10/20 11:16:18;;;;;;;;;;;21.30;68.30;;;;;;5017546;28;1428;-65
2023/10/20 11:18:44;;;;;;;;;;;21.30;68.40;;;;;;5017463;28;2221;-67
2023/10/20 11:21:12;;;;;;;;;;;21.30;68.40;;;;;;5017922;28;1179;-66
2023/10/20 11:23:38;;;;;;;;;;;21.30;68.50;;;;;;5018562;28;1294;-67
2023/10/20 11:26:13;;;;;;;;;;;21.30;68.50;;;;;;5022860;28;1515;-67
2023/10/20 11:28:39;;;;;;;;;;;21.30;68.40;;;;;;5020633;28;1236;-67
2023/10/20 11:31:06;;;;;;;;;;;21.30;68.40;;;;;;5019011;28;1793;-67
2023/10/20 11:33:31;;;;;;;;;;;21.30;68.40;;;;;;5021436;28;1902;-66
2023/10/20 11:36:00;;;;;;;;;;;21.30;68.30;;;;;;5021284;28;1425;-67
2023/10/20 11:38:26;;;;;;;;;;;21.40;68.40;;;;;;5022260;28;1605;-68
2023/10/20 11:40:52;;;;;;;;;;;21.40;68.50;;;;;;5015653;28;1504;-64
2023/10/20 11:43:17;;;;;;;;;;;21.40;68.40;;;;;;5017124;28;1329;-64
2023/10/20 11:45:43;;;;;;;;;;;21.40;68.30;;;;;;5019456;28;1501;-65
2023/10/20 11:48:08;;;;;;;;;;;21.40;68.20;;;;;;5022074;28;1312;-67
2023/10/20 11:50:34;;;;;;;;;;;21.50;68.40;;;;;;5024275;28;1243;-67
2023/10/20 11:52:59;;;;;;;;;;;21.50;68.30;;;;;;5022324;28;1967;-67
2023/10/20 11:55:25;;;;;;;;;;;21.50;68.10;;;;;;5019421;28;1353;-67
2023/10/20 11:57:50;;;;;;;;;;;21.50;68.20;;;;;;5020518;28;1050;-67
2023/10/20 12:00:17;;;;;;;;;;;21.50;68.70;;;;;;5021780;28;1257;-67
2023/10/20 12:02:43;;;;;;;;;;;21.50;68.10;;;;;;5021107;28;1329;-68
2023/10/20 12:05:10;;;;;;;;;;;21.50;68.40;;;;;;5021788;28;1290;-68
2023/10/20 12:07:35;;;;;;;;;;;21.40;65.30;;;;;;5022078;28;1426;-68
2023/10/20 12:10:01;;;;;;;;;;;21.40;62.10;;;;;;5025583;28;1317;-68
2023/10/20 12:12:26;;;;;;;;;;;21.30;60.30;;;;;;5021882;28;1922;-68
2023/10/20 12:14:51;;;;;;;;;;;21.20;59.20;;;;;;5022653;28;1084;-68
2023/10/20 12:17:17;;;;;;;;;;;21.20;58.50;;;;;;5022614;28;1269;-68
2023/10/20 12:19:43;;;;;;;;;;;21.10;57.90;;;;;;5021684;28;1374;-68
2023/10/20 12:22:08;;;;;;;;;;;21.00;57.40;;;;;;5020544;28;1400;-68
2023/10/20 12:24:35;;;;;;;;;;;21.00;57.30;;;;;;5018616;28;1129;-68
2023/10/20 12:27:00;;;;;;;;;;;20.90;57.20;;;;;;5019623;28;1585;-68
2023/10/20 12:29:26;;;;;;;;;;;20.80;57.10;;;;;;5021737;28;1577;-67
2023/10/20 12:31:51;;;;;;;;;;;20.80;57.10;;;;;;5022955;28;1292;-65
2023/10/20 12:34:17;;;;;;;;;;;20.70;56.50;;;;;;5018280;28;1902;-65
2023/10/20 12:36:44;;;;;;;;;;;20.70;56.30;;;;;;5019251;28;1483;-64
2023/10/20 12:39:16;;;;;;;;;;;20.70;55.60;;;;;;5021375;28;1556;-65
2023/10/20 12:41:43;;;;;;;;;;;20.60;55.60;;;;;;5022711;28;1542;-65
2023/10/20 12:44:08;;;;;;;;;;;20.60;56.30;;;;;;5021046;28;886;-65
2023/10/20 12:46:34;;;;;;;;;;;20.60;56.70;;;;;;5019623;28;1584;-63
2023/10/20 12:49:00;;;;;;;;;;;20.60;56.90;;;;;;5020215;28;1318;-64
2023/10/20 12:51:26;;;;;;;;;;;20.60;57.00;;;;;;5023332;28;1349;-65
2023/10/20 12:53:51;;;;;;;;;;;20.50;57.60;;;;;;5022072;28;1993;-66
2023/10/20 12:56:16;;;;;;;;;;;20.50;58.10;;;;;;5020606;28;1310;-66
2023/10/20 12:58:42;;;;;;;;;;;20.50;58.50;;;;;;5022847;28;1425;-66
2023/10/20 13:01:07;;;;;;;;;;;20.50;58.80;;;;;;5023575;28;1279;-65
2023/10/20 13:03:33;;;;;;;;;;;20.50;59.10;;;;;;5023548;28;1451;-66
2023/10/20 13:05:58;;;;;;;;;;;20.60;59.40;;;;;;5019926;28;1372;-66
2023/10/20 13:08:24;;;;;;;;;;;20.60;59.60;;;;;;5019662;28;1197;-65
2023/10/20 13:10:49;;;;;;;;;;;20.60;59.80;;;;;;5017995;28;1313;-65
2023/10/20 13:13:16;;;;;;;;;;;20.60;60.00;;;;;;5021796;28;1926;-65
2023/10/20 13:15:41;;;;;;;;;;;20.60;60.20;;;;;;5019964;28;1544;-65
2023/10/20 13:18:08;;;;;;;;;;;20.60;60.30;;;;;;5019007;28;1861;-65
2023/10/20 13:20:34;;;;;;;;;;;20.60;60.50;;;;;;5021204;28;1428;-65
2023/10/20 13:23:01;;;;;;;;;;;20.60;60.60;;;;;;5019119;28;1448;-66
2023/10/20 13:25:27;;;;;;;;;;;20.60;60.80;;;;;;5019109;28;1462;-66
2023/10/20 13:27:53;;;;;;;;;;;20.60;61.00;;;;;;5020389;28;1515;-65
2023/10/20 13:30:18;;;;;;;;;;;20.60;61.10;;;;;;5018592;28;1305;-65
2023/10/20 13:32:44;;;;;;;;;;;20.60;61.60;;;;;;5017535;28;1989;-65
2023/10/20 13:35:10;;;;;;;;;;;20.60;61.60;;;;;;5021305;28;1328;-65
2023/10/20 13:37:35;;;;;;;;;;;20.60;61.70;;;;;;5018560;28;1148;-65
2023/10/20 13:40:01;;;;;;;;;;;20.60;61.80;;;;;;5021336;28;1412;-65
2023/10/20 13:42:27;;;;;;;;;;;20.60;61.90;;;;;;5019784;28;1458;-65
2023/10/20 13:44:52;;;;;;;;;;;20.60;62.00;;;;;;5022695;28;1228;-66
2023/10/20 13:47:18;;;;;;;;;;;20.60;62.20;;;;;;5022027;28;1331;-65
2023/10/20 13:49:44;;;;;;;;;;;20.60;62.30;;;;;;5020680;28;1277;-65
2023/10/20 13:52:09;;;;;;;;;;;20.50;62.40;;;;;;5023025;28;1429;-65
2023/10/20 13:54:35;;;;;;;;;;;20.50;62.50;;;;;;5022113;28;1931;-65
2023/10/20 13:57:01;;;;;;;;;;;20.50;62.70;;;;;;5020412;28;1796;-65
2023/10/20 13:59:26;;;;;;;;;;;20.50;62.80;;;;;;5025305;28;1557;-65
2023/10/20 14:01:52;;;;;;;;;;;20.50;62.90;;;;;;5023126;28;1460;-65
2023/10/20 14:04:18;;;;;;;;;;;20.50;62.90;;;;;;5019649;28;1373;-66
2023/10/20 14:06:44;;;;;;;;;;;20.50;63.00;;;;;;5017513;28;1447;-66
2023/10/20 14:09:09;;;;;;;;;;;20.50;63.20;;;;;;5020872;28;1222;-66
2023/10/20 14:11:35;;;;;;;;;;;20.50;63.20;;;;;;5024310;28;1456;-65
2023/10/20 14:14:00;;;;;;;;;;;20.50;63.30;;;;;;5015997;28;1969;-65
2023/10/20 14:16:26;;;;;;;;;;;20.50;63.30;;;;;;5018329;28;1364;-65
2023/10/20 14:18:52;;;;;;;;;;;20.50;63.40;;;;;;5017949;28;1304;-65
2023/10/20 14:21:17;;;;;;;;;;;20.50;63.50;;;;;;5019853;28;1321;-65
2023/10/20 14:23:43;;;;;;;;;;;20.50;63.50;;;;;;5018664;28;1948;-66
2023/10/20 14:26:08;;;;;;;;;;;20.50;63.50;;;;;;5018957;28;1350;-65
2023/10/20 14:28:34;;;;;;;;;;;20.50;63.50;;;;;;5018718;28;1313;-65
2023/10/20 14:31:02;;;;;;;;;;;20.50;63.60;;;;;;5019760;28;1322;-65
2023/10/20 14:33:28;;;;;;;;;;;20.50;63.60;;;;;;5022175;28;1962;-65
2023/10/20 14:35:56;;;;;;;;;;;20.50;63.60;;;;;;5018465;28;1233;-66
2023/10/20 14:38:22;;;;;;;;;;;20.50;63.70;;;;;;5009525;28;4206;-66
2023/10/20 14:40:48;;;;;;;;;;;20.50;63.80;;;;;;5016283;28;3454;-66
2023/10/20 14:43:13;;;;;;;;;;;20.50;63.70;;;;;;5019439;28;1373;-66
2023/10/20 14:45:39;;;;;;;;;;;20.50;63.80;;;;;;5019542;28;1343;-66
2023/10/20 14:48:04;;;;;;;;;;;20.50;63.80;;;;;;5021873;28;1282;-66
2023/10/20 14:50:30;;;;;;;;;;;20.50;63.80;;;;;;5015797;28;1112;-66
2023/10/20 14:52:55;;;;;;;;;;;20.60;63.80;;;;;;5019805;28;1969;-66
2023/10/20 14:55:21;;;;;;;;;;;20.60;63.90;;;;;;5019641;28;1284;-66
2023/10/20 14:57:48;;;;;;;;;;;20.60;63.90;;;;;;5018379;28;1071;-66
2023/10/20 15:00:14;;;;;;;;;;;20.60;63.90;;;;;;5019338;28;1232;-66